Time;durP1;ratioP1;P1;durP2;ratioP2;P2;SDS_P1;SDS_P2;PMS_P1;PMS_P2;Temp;Humidity;BMP_temperature;BMP_pressure;BME280_temperature;BME280_humidity;BME280_pressure;Samples;Min_cycle;Max_cycle;Signal;HPM_P1;HPM_P2
2023/04/23 00:02:02;;;;;;;34.92;8.10;;;;;;;;;;5069493;28;20420;-49
2023/04/23 00:04:33;;;;;;;29.52;7.53;;;;;;;;;;5069980;28;20025;-48
2023/04/23 00:07:00;;;;;;;41.78;8.73;;;;;;;;;;5067983;28;20032;-48
2023/04/23 00:09:31;;;;;;;36.05;8.35;;;;;;;;;;5070572;28;20101;-48
2023/04/23 00:11:58;;;;;;;36.25;8.82;;;;;;;;;;5071880;28;20032;-48
2023/04/23 00:14:25;;;;;;;37.97;8.30;;;;;;;;;;5074933;28;20043;-49
2023/04/23 00:16:53;;;;;;;34.78;8.45;;;;;;;;;;5074161;28;20036;-48
2023/04/23 00:19:20;;;;;;;38.55;8.45;;;;;;;;;;5075826;28;20427;-52
2023/04/23 00:21:47;;;;;;;38.20;9.32;;;;;;;;;;5080978;28;20549;-50
2023/04/23 00:24:14;;;;;;;36.45;9.05;;;;;;;;;;5074132;28;20025;-48
2023/04/23 00:26:41;;;;;;;31.38;8.23;;;;;;;;;;5071263;28;20037;-48
2023/04/23 00:29:08;;;;;;;31.92;8.18;;;;;;;;;;5073640;28;20056;-49
2023/04/23 00:31:34;;;;;;;29.98;8.13;;;;;;;;;;5073972;28;20032;-49
2023/04/23 00:34:02;;;;;;;40.63;8.93;;;;;;;;;;5073858;28;20386;-52
2023/04/23 00:36:29;;;;;;;38.50;7.80;;;;;;;;;;5073826;28;20027;-50
2023/04/23 00:38:59;;;;;;;36.08;9.30;;;;;;;;;;5073615;28;20024;-52
2023/04/23 00:41:27;;;;;;;37.08;8.32;;;;;;;;;;5073513;28;20079;-50
2023/04/23 00:43:56;;;;;;;31.60;8.38;;;;;;;;;;5073749;28;20032;-49
2023/04/23 00:46:25;;;;;;;30.13;8.40;;;;;;;;;;5055625;28;20047;-52
2023/04/23 00:48:52;;;;;;;41.67;8.30;;;;;;;;;;5072229;28;20036;-46
2023/04/23 00:51:24;;;;;;;33.30;8.23;;;;;;;;;;5069345;28;20044;-47
2023/04/23 00:53:51;;;;;;;33.03;8.17;;;;;;;;;;5073384;28;20078;-48
2023/04/23 00:56:18;;;;;;;44.42;9.13;;;;;;;;;;5073384;28;20044;-48
2023/04/23 00:58:45;;;;;;;28.67;7.05;;;;;;;;;;5073381;28;20033;-49
2023/04/23 01:01:13;;;;;;;31.50;7.68;;;;;;;;;;5073297;28;20099;-47
2023/04/23 01:03:41;;;;;;;31.33;8.15;;;;;;;;;;5055174;28;20362;-47
2023/04/23 01:06:09;;;;;;;29.10;7.85;;;;;;;;;;5073120;28;20089;-49
2023/04/23 01:08:36;;;;;;;31.95;7.88;;;;;;;;;;5073542;28;20040;-51
2023/04/23 01:11:03;;;;;;;31.38;7.47;;;;;;;;;;5073778;28;20612;-54
2023/04/23 01:13:30;;;;;;;27.23;7.25;;;;;;;;;;5073737;28;20023;-47
2023/04/23 01:15:57;;;;;;;34.67;7.43;;;;;;;;;;5073583;28;20485;-50
2023/04/23 01:18:25;;;;;;;31.15;6.63;;;;;;;;;;5073252;28;20028;-46
2023/04/23 01:20:52;;;;;;;28.20;7.13;;;;;;;;;;5072902;28;20025;-48
2023/04/23 01:23:19;;;;;;;28.20;7.18;;;;;;;;;;5072372;28;20032;-46
2023/04/23 01:25:46;;;;;;;27.27;6.85;;;;;;;;;;5055290;28;20085;-47
2023/04/23 01:28:13;;;;;;;26.05;6.68;;;;;;;;;;5073497;28;20029;-47
2023/04/23 01:30:42;;;;;;;27.33;7.55;;;;;;;;;;5073231;28;20033;-45
2023/04/23 01:33:10;;;;;;;23.88;6.95;;;;;;;;;;5073290;28;20517;-45
2023/04/23 01:35:37;;;;;;;21.75;5.85;;;;;;;;;;5073239;28;20063;-47
2023/04/23 01:38:04;;;;;;;24.45;5.95;;;;;;;;;;5073193;28;20393;-47
2023/04/23 01:40:31;;;;;;;47.08;6.95;;;;;;;;;;5072805;28;20040;-49
2023/04/23 01:42:59;;;;;;;24.63;7.13;;;;;;;;;;5078286;28;20468;-47
2023/04/23 01:45:26;;;;;;;22.95;6.68;;;;;;;;;;5081614;28;20098;-47
2023/04/23 01:47:53;;;;;;;41.60;7.28;;;;;;;;;;5085556;28;20081;-50
2023/04/23 01:50:23;;;;;;;29.67;6.68;;;;;;;;;;5077975;28;20486;-47
2023/04/23 01:52:50;;;;;;;20.70;6.68;;;;;;;;;;5072260;28;20040;-47
2023/04/23 01:55:20;;;;;;;22.15;6.10;;;;;;;;;;5072351;28;20070;-46
2023/04/23 01:57:47;;;;;;;22.25;6.45;;;;;;;;;;5072242;28;20481;-46
2023/04/23 02:00:16;;;;;;;19.52;5.80;;;;;;;;;;5069585;28;20036;-51
2023/04/23 02:02:44;;;;;;;25.05;6.38;;;;;;;;;;5072087;28;20111;-45
2023/04/23 02:05:17;;;;;;;20.40;6.00;;;;;;;;;;5071922;28;20041;-46
2023/04/23 02:07:45;;;;;;;20.60;5.75;;;;;;;;;;5071895;28;20482;-48
2023/04/23 02:10:12;;;;;;;23.58;5.60;;;;;;;;;;5071781;28;20039;-48
2023/04/23 02:12:39;;;;;;;22.45;6.50;;;;;;;;;;5071935;28;20071;-46
2023/04/23 02:15:07;;;;;;;22.10;5.68;;;;;;;;;;5071905;28;20024;-46
2023/04/23 02:17:34;;;;;;;18.13;5.88;;;;;;;;;;5074049;28;20021;-47
2023/04/23 02:20:01;;;;;;;23.42;5.68;;;;;;;;;;5071631;28;20051;-47
2023/04/23 02:22:28;;;;;;;21.52;5.82;;;;;;;;;;5071574;28;20123;-46
2023/04/23 02:24:55;;;;;;;25.65;5.85;;;;;;;;;;5071578;28;20043;-49
2023/04/23 02:27:22;;;;;;;16.45;5.32;;;;;;;;;;5072170;28;20155;-46
2023/04/23 02:29:50;;;;;;;14.90;5.20;;;;;;;;;;5072047;28;20030;-49
2023/04/23 02:32:17;;;;;;;16.85;5.82;;;;;;;;;;5070854;28;20044;-52
2023/04/23 02:34:45;;;;;;;17.27;5.30;;;;;;;;;;5068713;28;20146;-51
2023/04/23 02:37:12;;;;;;;26.83;5.82;;;;;;;;;;5071118;28;20033;-50
2023/04/23 02:39:39;;;;;;;14.27;4.85;;;;;;;;;;5071125;28;20103;-48
2023/04/23 02:42:06;;;;;;;17.02;5.10;;;;;;;;;;5071478;28;20040;-47
2023/04/23 02:44:33;;;;;;;14.10;4.90;;;;;;;;;;5070511;28;20085;-48
2023/04/23 02:47:00;;;;;;;26.15;5.65;;;;;;;;;;5070421;28;20020;-50
2023/04/23 02:49:27;;;;;;;18.33;5.53;;;;;;;;;;5071078;28;20039;-45
2023/04/23 02:51:54;;;;;;;26.20;5.45;;;;;;;;;;5070606;28;20040;-53
2023/04/23 02:54:26;;;;;;;16.55;4.97;;;;;;;;;;5071110;28;20784;-46
2023/04/23 02:56:54;;;;;;;18.38;5.88;;;;;;;;;;5069806;28;20043;-46
2023/04/23 02:59:21;;;;;;;33.92;5.65;;;;;;;;;;5050173;28;20394;-47
2023/04/23 03:01:48;;;;;;;23.80;5.45;;;;;;;;;;5068260;28;20482;-46
2023/04/23 03:04:15;;;;;;;24.63;5.03;;;;;;;;;;5051439;28;20114;-45
2023/04/23 03:06:42;;;;;;;17.27;4.80;;;;;;;;;;5068609;28;20036;-47
2023/04/23 03:09:09;;;;;;;21.33;5.63;;;;;;;;;;5068584;28;20024;-50
2023/04/23 03:11:37;;;;;;;26.92;5.60;;;;;;;;;;5067704;28;20028;-46
2023/04/23 03:14:04;;;;;;;18.65;5.43;;;;;;;;;;5068786;28;20059;-46
2023/04/23 03:16:31;;;;;;;20.23;5.45;;;;;;;;;;5068140;28;20031;-45
2023/04/23 03:18:58;;;;;;;17.67;5.30;;;;;;;;;;5068263;28;20047;-45
2023/04/23 03:21:26;;;;;;;18.08;4.93;;;;;;;;;;5068430;28;20037;-46
2023/04/23 03:23:53;;;;;;;22.58;5.22;;;;;;;;;;5068789;28;20032;-45
2023/04/23 03:26:20;;;;;;;26.60;6.28;;;;;;;;;;5069049;28;20020;-46
2023/04/23 03:28:47;;;;;;;21.77;5.60;;;;;;;;;;5068580;28;20025;-44
2023/04/23 03:31:14;;;;;;;22.80;5.93;;;;;;;;;;5067876;28;20021;-45
2023/04/23 03:33:41;;;;;;;18.05;5.28;;;;;;;;;;5069486;28;20024;-44
2023/04/23 03:36:08;;;;;;;27.00;5.65;;;;;;;;;;5069553;28;20028;-45
2023/04/23 03:38:35;;;;;;;26.10;5.65;;;;;;;;;;5068034;28;20024;-46
2023/04/23 03:41:02;;;;;;;21.60;5.78;;;;;;;;;;5069092;28;20118;-46
2023/04/23 03:43:29;;;;;;;19.98;5.05;;;;;;;;;;5051459;28;20147;-45
2023/04/23 03:45:56;;;;;;;19.00;5.18;;;;;;;;;;5069178;28;20040;-46
2023/04/23 03:48:24;;;;;;;15.77;4.78;;;;;;;;;;5075006;28;20402;-46
2023/04/23 03:50:50;;;;;;;20.70;5.35;;;;;;;;;;5075127;28;20048;-45
2023/04/23 03:53:17;;;;;;;24.10;5.82;;;;;;;;;;5075099;28;20074;-45
2023/04/23 03:55:44;;;;;;;22.27;5.45;;;;;;;;;;5074984;28;20048;-45
2023/04/23 03:58:11;;;;;;;28.65;5.60;;;;;;;;;;5075158;28;20091;-44
2023/04/23 04:00:38;;;;;;;17.42;4.68;;;;;;;;;;5074784;28;20064;-45
2023/04/23 04:03:07;;;;;;;18.95;5.00;;;;;;;;;;5075022;28;20032;-45
2023/04/23 04:05:34;;;;;;;17.75;4.47;;;;;;;;;;5074904;28;20033;-45
2023/04/23 04:08:03;;;;;;;16.98;4.63;;;;;;;;;;5074950;28;20044;-45
2023/04/23 04:10:30;;;;;;;15.40;4.95;;;;;;;;;;5074709;28;20029;-44
2023/04/23 04:12:57;;;;;;;16.52;4.47;;;;;;;;;;5074828;28;20035;-46
2023/04/23 04:15:24;;;;;;;16.08;4.45;;;;;;;;;;5074750;28;20033;-45
2023/04/23 04:17:51;;;;;;;17.90;4.78;;;;;;;;;;5074690;28;20066;-45
2023/04/23 04:20:18;;;;;;;14.00;4.13;;;;;;;;;;5074403;28;20031;-45
2023/04/23 04:22:45;;;;;;;15.27;5.28;;;;;;;;;;5074567;28;20037;-45
2023/04/23 04:25:13;;;;;;;13.18;4.72;;;;;;;;;;5074601;28;20028;-45
2023/04/23 04:27:40;;;;;;;11.57;3.92;;;;;;;;;;5074550;28;20024;-45
2023/04/23 04:30:08;;;;;;;14.10;4.25;;;;;;;;;;5074394;28;20031;-45
2023/04/23 04:32:37;;;;;;;16.48;4.32;;;;;;;;;;5074470;28;20486;-46
2023/04/23 04:35:05;;;;;;;13.68;3.92;;;;;;;;;;5074308;28;20025;-45
2023/04/23 04:37:32;;;;;;;19.55;4.72;;;;;;;;;;5074401;28;20017;-44
2023/04/23 04:40:00;;;;;;;15.25;4.50;;;;;;;;;;5074152;28;20038;-44
2023/04/23 04:42:27;;;;;;;14.88;3.95;;;;;;;;;;5074027;28;20412;-45
2023/04/23 04:44:57;;;;;;;12.98;3.83;;;;;;;;;;5074284;28;20474;-45
2023/04/23 04:47:24;;;;;;;15.35;4.20;;;;;;;;;;5074058;28;20033;-44
2023/04/23 04:49:51;;;;;;;12.65;3.88;;;;;;;;;;5073930;28;20029;-44
2023/04/23 04:52:18;;;;;;;15.63;4.25;;;;;;;;;;5073866;28;20056;-45
2023/04/23 04:54:45;;;;;;;11.88;3.97;;;;;;;;;;5073960;28;20032;-45
2023/04/23 04:57:12;;;;;;;13.70;4.07;;;;;;;;;;5073404;28;20051;-45
2023/04/23 04:59:39;;;;;;;11.13;3.63;;;;;;;;;;5073594;28;20027;-45
2023/04/23 05:02:06;;;;;;;14.27;3.90;;;;;;;;;;5073874;28;20047;-45
2023/04/23 05:04:33;;;;;;;14.25;4.30;;;;;;;;;;5073855;28;20493;-44
2023/04/23 05:07:00;;;;;;;10.38;3.90;;;;;;;;;;5073878;28;20031;-44
2023/04/23 05:09:27;;;;;;;12.43;4.10;;;;;;;;;;5073730;28;20025;-44
2023/04/23 05:11:54;;;;;;;15.00;4.57;;;;;;;;;;5073718;28;20027;-45
2023/04/23 05:14:21;;;;;;;15.27;3.90;;;;;;;;;;5073752;28;20090;-45
2023/04/23 05:16:48;;;;;;;12.93;3.50;;;;;;;;;;5055635;28;20024;-45
2023/04/23 05:19:15;;;;;;;11.48;4.68;;;;;;;;;;5073638;28;20347;-44
2023/04/23 05:21:42;;;;;;;8.35;3.10;;;;;;;;;;5073583;28;20032;-45
2023/04/23 05:24:09;;;;;;;11.90;3.75;;;;;;;;;;5055413;28;20466;-45
2023/04/23 05:26:36;;;;;;;8.68;3.55;;;;;;;;;;5073520;28;20029;-45
2023/04/23 05:29:03;;;;;;;13.35;3.63;;;;;;;;;;5073372;28;20044;-44
2023/04/23 05:31:30;;;;;;;13.45;3.70;;;;;;;;;;5073352;28;20062;-45
2023/04/23 05:33:57;;;;;;;9.40;3.33;;;;;;;;;;5073365;28;20104;-45
2023/04/23 05:36:24;;;;;;;9.50;3.63;;;;;;;;;;5073324;28;20013;-44
2023/04/23 05:38:51;;;;;;;10.75;3.05;;;;;;;;;;5073171;28;20044;-44
2023/04/23 05:41:18;;;;;;;8.95;3.30;;;;;;;;;;5073096;28;20071;-44
2023/04/23 05:43:45;;;;;;;11.55;3.53;;;;;;;;;;5073130;28;20090;-45
2023/04/23 05:46:12;;;;;;;10.90;3.58;;;;;;;;;;5073072;28;20044;-46
2023/04/23 05:48:39;;;;;;;9.32;3.33;;;;;;;;;;5072981;28;20028;-44
2023/04/23 05:51:06;;;;;;;8.20;3.05;;;;;;;;;;5072866;28;20044;-44
2023/04/23 05:53:33;;;;;;;8.93;3.30;;;;;;;;;;5072898;28;20092;-44
2023/04/23 05:56:00;;;;;;;10.50;3.30;;;;;;;;;;5072930;28;20028;-45
2023/04/23 05:58:27;;;;;;;12.50;3.38;;;;;;;;;;5072699;28;20020;-45
2023/04/23 06:00:54;;;;;;;11.85;3.55;;;;;;;;;;5071154;28;20036;-44
2023/04/23 06:03:21;;;;;;;10.65;3.00;;;;;;;;;;5072893;28;20100;-44
2023/04/23 06:05:48;;;;;;;9.50;3.20;;;;;;;;;;5072737;28;20089;-45
2023/04/23 06:08:15;;;;;;;9.05;3.00;;;;;;;;;;5072617;28;20028;-44
2023/04/23 06:10:42;;;;;;;10.50;3.33;;;;;;;;;;5072553;28;20471;-44
2023/04/23 06:13:09;;;;;;;10.70;3.40;;;;;;;;;;5072585;28;20386;-45
2023/04/23 06:15:36;;;;;;;8.38;2.80;;;;;;;;;;5072463;28;20028;-44
2023/04/23 06:18:03;;;;;;;9.38;3.30;;;;;;;;;;5072370;28;20020;-45
2023/04/23 06:20:30;;;;;;;10.48;3.85;;;;;;;;;;5072430;28;20139;-47
2023/04/23 06:22:57;;;;;;;10.48;3.00;;;;;;;;;;5072246;28;20067;-45
2023/04/23 06:25:24;;;;;;;8.38;3.25;;;;;;;;;;5072222;28;20099;-44
2023/04/23 06:27:51;;;;;;;9.70;3.30;;;;;;;;;;5072282;28;20502;-44
2023/04/23 06:30:18;;;;;;;10.18;3.25;;;;;;;;;;5071985;28;20032;-44
2023/04/23 06:32:45;;;;;;;8.88;3.08;;;;;;;;;;5072253;28;20028;-44
2023/04/23 06:35:12;;;;;;;7.85;3.15;;;;;;;;;;5072177;28;20032;-45
2023/04/23 06:37:39;;;;;;;8.95;3.45;;;;;;;;;;5072140;28;20076;-45
2023/04/23 06:40:07;;;;;;;10.48;2.97;;;;;;;;;;5071886;28;20043;-44
2023/04/23 06:42:34;;;;;;;7.80;3.00;;;;;;;;;;5071685;28;20399;-44
2023/04/23 06:45:03;;;;;;;7.25;2.95;;;;;;;;;;5071904;28;20028;-45
2023/04/23 06:47:31;;;;;;;8.70;2.63;;;;;;;;;;5071806;28;20040;-44
2023/04/23 06:50:01;;;;;;;7.82;2.85;;;;;;;;;;5071711;28;20036;-45
2023/04/23 06:52:28;;;;;;;10.48;2.90;;;;;;;;;;5071680;28;20048;-46
2023/04/23 06:54:55;;;;;;;11.13;3.03;;;;;;;;;;5071815;28;20052;-44
2023/04/23 06:57:22;;;;;;;6.82;2.78;;;;;;;;;;5071839;28;20532;-44
2023/04/23 06:59:48;;;;;;;7.85;2.80;;;;;;;;;;5071792;28;20465;-45
2023/04/23 07:02:15;;;;;;;9.70;3.10;;;;;;;;;;5071718;28;20056;-45
2023/04/23 07:04:42;;;;;;;12.55;3.50;;;;;;;;;;5071743;28;20024;-44
2023/04/23 07:07:09;;;;;;;10.20;3.33;;;;;;;;;;5071575;28;20036;-45
2023/04/23 07:09:36;;;;;;;10.05;2.85;;;;;;;;;;5071566;28;20021;-44
2023/04/23 07:12:03;;;;;;;6.88;2.83;;;;;;;;;;5071538;28;20029;-44
2023/04/23 07:14:30;;;;;;;6.88;2.80;;;;;;;;;;5071571;28;20654;-44
2023/04/23 07:16:58;;;;;;;10.77;3.25;;;;;;;;;;5071730;28;20016;-45
2023/04/23 07:19:26;;;;;;;6.35;2.38;;;;;;;;;;5071462;28;20028;-44
2023/04/23 07:21:53;;;;;;;7.97;3.30;;;;;;;;;;5071079;28;20033;-45
2023/04/23 07:24:20;;;;;;;7.57;2.40;;;;;;;;;;5071552;28;20036;-44
2023/04/23 07:26:47;;;;;;;8.07;2.60;;;;;;;;;;5071488;28;20471;-45
2023/04/23 07:29:14;;;;;;;9.00;2.83;;;;;;;;;;5071391;28;20020;-45
2023/04/23 07:31:41;;;;;;;8.95;2.65;;;;;;;;;;5071320;28;20104;-44
2023/04/23 07:34:08;;;;;;;6.57;2.70;;;;;;;;;;5070228;28;20484;-45
2023/04/23 07:36:36;;;;;;;7.45;2.60;;;;;;;;;;5071271;28;20033;-45
2023/04/23 07:39:04;;;;;;;7.22;2.88;;;;;;;;;;5071386;28;20075;-45
2023/04/23 07:41:31;;;;;;;8.27;2.75;;;;;;;;;;5071243;28;20037;-45
2023/04/23 07:43:58;;;;;;;8.00;2.65;;;;;;;;;;5071344;28;20095;-45
2023/04/23 07:46:25;;;;;;;7.53;2.42;;;;;;;;;;5071154;28;20028;-47
2023/04/23 07:48:52;;;;;;;8.32;2.40;;;;;;;;;;5071410;28;20028;-45
2023/04/23 07:51:21;;;;;;;6.93;2.42;;;;;;;;;;5063596;28;20049;-45
2023/04/23 07:53:50;;;;;;;9.60;2.88;;;;;;;;;;5051025;28;20029;-45
2023/04/23 07:56:17;;;;;;;7.53;2.60;;;;;;;;;;5050841;28;20132;-45
2023/04/23 07:58:44;;;;;;;10.70;2.83;;;;;;;;;;5051097;28;20025;-45
2023/04/23 08:01:11;;;;;;;7.47;2.50;;;;;;;;;;5050961;28;20082;-44
2023/04/23 08:03:38;;;;;;;8.05;2.65;;;;;;;;;;5051139;28;20032;-44
2023/04/23 08:06:05;;;;;;;6.45;2.70;;;;;;;;;;5051069;28;20021;-45
2023/04/23 08:08:32;;;;;;;8.25;2.90;;;;;;;;;;5050913;28;20025;-44
2023/04/23 08:10:59;;;;;;;6.57;2.75;;;;;;;;;;5051095;28;20025;-44
2023/04/23 08:13:26;;;;;;;8.57;2.40;;;;;;;;;;5051081;28;20096;-45
2023/04/23 08:15:53;;;;;;;8.85;2.33;;;;;;;;;;5050964;28;20036;-44
2023/04/23 08:18:20;;;;;;;6.05;2.20;;;;;;;;;;5050822;28;20083;-44
2023/04/23 08:20:47;;;;;;;8.30;2.67;;;;;;;;;;5051010;28;20021;-45
2023/04/23 08:23:14;;;;;;;7.53;2.40;;;;;;;;;;5050850;28;20029;-46
2023/04/23 08:25:41;;;;;;;7.43;2.83;;;;;;;;;;5050897;28;20426;-45
2023/04/23 08:28:08;;;;;;;8.13;2.88;;;;;;;;;;5050848;28;20029;-45
2023/04/23 08:30:35;;;;;;;7.72;2.30;;;;;;;;;;5050876;28;20025;-44
2023/04/23 08:33:02;;;;;;;6.65;2.55;;;;;;;;;;5051929;28;20036;-44
2023/04/23 08:35:29;;;;;;;5.80;2.10;;;;;;;;;;5054365;28;20029;-45
2023/04/23 08:37:56;;;;;;;5.15;2.15;;;;;;;;;;5054284;28;20517;-46
2023/04/23 08:40:23;;;;;;;5.85;2.33;;;;;;;;;;5054334;28;20108;-46
2023/04/23 08:43:01;;;;;;;7.78;2.17;;;;;;;;;;5054128;28;20398;-44
2023/04/23 08:45:29;;;;;;;7.97;2.50;;;;;;;;;;5054306;28;20029;-45
2023/04/23 08:47:59;;;;;;;7.57;2.40;;;;;;;;;;5054117;28;20491;-44
2023/04/23 08:50:26;;;;;;;6.10;2.38;;;;;;;;;;5053811;28;20178;-45
2023/04/23 08:52:54;;;;;;;7.38;2.47;;;;;;;;;;5054131;28;20033;-45
2023/04/23 08:55:22;;;;;;;6.75;2.78;;;;;;;;;;5053972;28;20044;-45
2023/04/23 08:57:49;;;;;;;8.05;2.30;;;;;;;;;;5035846;28;20372;-44
2023/04/23 09:00:17;;;;;;;7.60;2.45;;;;;;;;;;5054021;28;20021;-44
2023/04/23 09:02:45;;;;;;;6.97;2.47;;;;;;;;;;5053798;28;20104;-45
2023/04/23 09:05:13;;;;;;;7.80;2.63;;;;;;;;;;5047792;28;20037;-45
2023/04/23 09:07:40;;;;;;;6.18;2.42;;;;;;;;;;5053787;28;20040;-44
2023/04/23 09:10:08;;;;;;;6.50;2.30;;;;;;;;;;5053747;28;20024;-45
2023/04/23 09:12:35;;;;;;;8.13;2.30;;;;;;;;;;5053780;28;20102;-45
2023/04/23 09:15:09;;;;;;;4.85;2.22;;;;;;;;;;5053663;28;20025;-46
2023/04/23 09:17:39;;;;;;;5.53;2.25;;;;;;;;;;5053591;28;20036;-45
2023/04/23 09:20:09;;;;;;;4.70;2.03;;;;;;;;;;5053306;28;20029;-44
2023/04/23 09:22:44;;;;;;;7.95;2.63;;;;;;;;;;5053365;28;20044;-44
2023/04/23 09:25:12;;;;;;;5.07;2.10;;;;;;;;;;5053494;28;20025;-45
2023/04/23 09:27:39;;;;;;;7.97;2.67;;;;;;;;;;5053521;28;20378;-46
2023/04/23 09:30:08;;;;;;;8.13;2.30;;;;;;;;;;5053399;28;20061;-44
2023/04/23 09:32:35;;;;;;;5.28;2.42;;;;;;;;;;5053576;28;20053;-44
2023/04/23 09:35:03;;;;;;;5.45;2.20;;;;;;;;;;5053386;28;20503;-44
2023/04/23 09:37:31;;;;;;;6.68;2.30;;;;;;;;;;5053242;28;20025;-44
2023/04/23 09:40:03;;;;;;;7.07;2.72;;;;;;;;;;5052928;28;20166;-44
2023/04/23 09:42:29;;;;;;;;;;;;;;;;;;5053444;28;20045;-45
2023/04/23 09:44:57;;;;;;;7.15;2.55;;;;;;;;;;5034806;28;19915;-44
2023/04/23 09:47:24;;;;;;;5.72;2.28;;;;;;;;;;5053177;28;20060;-45
2023/04/23 09:49:51;;;;;;;6.75;2.50;;;;;;;;;;5053086;28;20028;-44
2023/04/23 09:52:19;;;;;;;6.30;2.58;;;;;;;;;;5052828;28;20049;-45
2023/04/23 09:54:47;;;;;;;6.53;2.30;;;;;;;;;;5052875;28;20040;-44
2023/04/23 09:57:14;;;;;;;7.57;2.28;;;;;;;;;;5052923;28;20017;-44
2023/04/23 09:59:41;;;;;;;6.55;2.35;;;;;;;;;;5052812;28;20021;-44
2023/04/23 10:02:09;;;;;;;5.82;2.20;;;;;;;;;;5052760;28;20033;-44
2023/04/23 10:04:36;;;;;;;5.43;2.05;;;;;;;;;;5052878;28;20041;-44
2023/04/23 10:07:07;;;;;;;6.25;1.95;;;;;;;;;;5052560;28;20036;-44
2023/04/23 10:09:34;;;;;;;6.53;2.50;;;;;;;;;;5052707;28;20030;-44
2023/04/23 10:12:02;;;;;;;4.68;1.80;;;;;;;;;;5052702;28;20037;-44
2023/04/23 10:14:30;;;;;;;7.03;2.47;;;;;;;;;;5052615;28;20395;-45
2023/04/23 10:17:03;;;;;;;5.65;2.28;;;;;;;;;;5052499;28;20028;-44
2023/04/23 10:19:32;;;;;;;5.72;2.28;;;;;;;;;;5052540;28;20024;-44
2023/04/23 10:22:04;;;;;;;8.18;2.38;;;;;;;;;;5052224;28;20037;-45
2023/04/23 10:24:30;;;;;;;;;;;;;;;;;;5053040;28;20029;-44
2023/04/23 10:26:59;;;;;;;5.28;1.92;;;;;;;;;;5052366;28;19978;-44
2023/04/23 10:29:30;;;;;;;5.20;2.13;;;;;;;;;;5052039;28;20357;-44
2023/04/23 10:31:58;;;;;;;5.03;1.90;;;;;;;;;;5042148;28;20026;-44
2023/04/23 10:34:26;;;;;;;5.53;2.22;;;;;;;;;;5032224;28;20018;-45
2023/04/23 10:36:55;;;;;;;4.72;2.17;;;;;;;;;;5032073;28;20049;-46
2023/04/23 10:39:23;;;;;;;3.90;1.83;;;;;;;;;;5031980;28;20357;-45
2023/04/23 10:41:52;;;;;;;5.78;2.13;;;;;;;;;;5032036;28;20037;-45
2023/04/23 10:44:22;;;;;;;4.65;1.67;;;;;;;;;;5031860;28;20383;-45
2023/04/23 10:46:59;;;;;;;5.30;1.75;;;;;;;;;;5031871;28;20021;-44
2023/04/23 10:49:30;;;;;;;4.78;2.10;;;;;;;;;;5031686;28;20096;-45
2023/04/23 10:52:13;;;;;;;4.50;1.73;;;;;;;;;;5056673;28;20053;-44
2023/04/23 10:54:40;;;;;;;5.40;1.77;;;;;;;;;;5071715;28;20032;-44
2023/04/23 10:57:08;;;;;;;9.45;2.67;;;;;;;;;;5071110;28;20020;-44
2023/04/23 10:59:36;;;;;;;5.65;1.95;;;;;;;;;;5071583;28;20453;-45
2023/04/23 11:02:06;;;;;;;5.95;2.50;;;;;;;;;;5071664;28;20082;-44
2023/04/23 11:04:35;;;;;;;6.90;2.25;;;;;;;;;;5071809;28;20017;-45
2023/04/23 11:07:06;;;;;;;4.40;1.85;;;;;;;;;;5071799;28;20021;-45
2023/04/23 11:09:46;;;;;;;5.93;2.00;;;;;;;;;;5071657;28;20378;-45
2023/04/23 11:12:34;;;;;;;7.78;2.20;;;;;;;;;;5071725;28;20025;-46
2023/04/23 11:15:10;;;;;;;6.03;2.05;;;;;;;;;;5071209;28;20032;-45
2023/04/23 11:17:37;;;;;;;7.15;2.30;;;;;;;;;;5071518;28;20095;-45
2023/04/23 11:20:09;;;;;;;6.05;1.92;;;;;;;;;;5071678;28;20020;-45
2023/04/23 11:22:46;;;;;;;5.85;2.33;;;;;;;;;;5071455;28;20245;-45
2023/04/23 11:25:32;;;;;;;7.63;2.25;;;;;;;;;;5071558;28;20091;-44
2023/04/23 11:28:00;;;;;;;6.82;2.28;;;;;;;;;;5071060;28;20074;-45
2023/04/23 11:30:28;;;;;;;5.70;2.08;;;;;;;;;;5071489;28;20020;-44
2023/04/23 11:32:58;;;;;;;5.63;2.13;;;;;;;;;;5056557;28;20418;-45
2023/04/23 11:35:36;;;;;;;6.13;1.90;;;;;;;;;;5051261;28;20040;-44
2023/04/23 11:38:09;;;;;;;8.13;2.28;;;;;;;;;;5051142;28;20037;-44
2023/04/23 11:40:36;;;;;;;6.07;2.20;;;;;;;;;;5051221;28;20105;-44
2023/04/23 11:43:03;;;;;;;6.88;2.13;;;;;;;;;;5050918;28;20044;-44
2023/04/23 11:45:30;;;;;;;7.88;1.95;;;;;;;;;;5051203;28;20024;-45
2023/04/23 11:47:57;;;;;;;5.88;2.20;;;;;;;;;;5050469;28;20082;-45
2023/04/23 11:50:25;;;;;;;4.93;2.05;;;;;;;;;;5051125;28;20470;-44
2023/04/23 11:52:52;;;;;;;5.30;2.08;;;;;;;;;;5045175;28;20049;-44
2023/04/23 11:55:20;;;;;;;5.85;2.00;;;;;;;;;;5051070;28;20029;-44
2023/04/23 11:57:48;;;;;;;10.93;2.35;;;;;;;;;;5050980;28;20091;-45
2023/04/23 12:00:17;;;;;;;7.18;2.15;;;;;;;;;;5050820;28;20430;-46
2023/04/23 12:03:12;;;;;;;5.63;2.00;;;;;;;;;;5050578;28;20052;-45
2023/04/23 12:05:41;;;;;;;5.43;2.03;;;;;;;;;;5049226;28;20507;-45
2023/04/23 12:08:19;;;;;;;4.97;1.90;;;;;;;;;;5036122;28;20025;-45
2023/04/23 12:10:46;;;;;;;5.78;1.98;;;;;;;;;;5054938;28;20029;-45
2023/04/23 12:13:17;;;;;;;4.28;1.90;;;;;;;;;;5054595;28;20107;-45
2023/04/23 12:15:46;;;;;;;5.32;1.88;;;;;;;;;;5054620;28;20108;-45
2023/04/23 12:18:13;;;;;;;4.03;1.75;;;;;;;;;;5054143;28;20025;-45
2023/04/23 12:20:40;;;;;;;7.00;2.38;;;;;;;;;;5054075;28;20025;-44
2023/04/23 12:23:07;;;;;;;6.07;2.20;;;;;;;;;;5053710;28;20036;-45
2023/04/23 12:25:35;;;;;;;6.50;2.20;;;;;;;;;;5053657;28;20583;-44
2023/04/23 12:28:05;;;;;;;4.60;1.88;;;;;;;;;;5053422;28;20033;-45
2023/04/23 12:30:33;;;;;;;4.97;1.92;;;;;;;;;;5053313;28;20032;-45
2023/04/23 12:33:01;;;;;;;5.95;1.90;;;;;;;;;;5052919;28;20029;-45
2023/04/23 12:35:38;;;;;;;6.97;2.38;;;;;;;;;;5052841;28;20033;-44
2023/04/23 12:38:05;;;;;;;5.95;2.15;;;;;;;;;;5050835;28;20044;-45
2023/04/23 12:40:33;;;;;;;5.53;2.10;;;;;;;;;;5053462;28;20033;-46
2023/04/23 12:43:00;;;;;;;5.97;1.95;;;;;;;;;;5053171;28;20127;-45
2023/04/23 12:45:36;;;;;;;8.80;2.40;;;;;;;;;;5053534;28;20140;-46
2023/04/23 12:48:04;;;;;;;8.38;2.58;;;;;;;;;;5050576;28;20059;-45
2023/04/23 12:50:31;;;;;;;12.15;3.40;;;;;;;;;;5053622;28;20036;-47
2023/04/23 12:52:58;;;;;;;13.63;3.63;;;;;;;;;;5072623;28;20052;-44
2023/04/23 12:55:25;;;;;;;12.20;3.10;;;;;;;;;;5073492;28;20031;-45
2023/04/23 12:57:52;;;;;;;10.50;3.63;;;;;;;;;;5073391;28;20021;-47
2023/04/23 13:00:19;;;;;;;13.27;3.97;;;;;;;;;;5072929;28;20034;-46
2023/04/23 13:02:46;;;;;;;12.60;3.15;;;;;;;;;;5072740;28;20121;-45
2023/04/23 13:05:13;;;;;;;17.08;3.80;;;;;;;;;;5072612;28;20031;-45
2023/04/23 13:07:40;;;;;;;14.27;3.15;;;;;;;;;;5072641;28;20021;-45
2023/04/23 13:10:07;;;;;;;11.73;3.45;;;;;;;;;;5070360;28;20033;-47
2023/04/23 13:12:34;;;;;;;13.77;3.20;;;;;;;;;;5073182;28;20048;-44
2023/04/23 13:15:01;;;;;;;17.60;3.70;;;;;;;;;;5073355;28;20028;-47
2023/04/23 13:17:28;;;;;;;12.00;3.25;;;;;;;;;;5073593;28;20436;-47
2023/04/23 13:19:56;;;;;;;19.70;3.40;;;;;;;;;;5072822;28;20028;-47
2023/04/23 13:22:27;;;;;;;15.93;3.20;;;;;;;;;;5073242;28;20559;-47
2023/04/23 13:24:57;;;;;;;14.82;3.45;;;;;;;;;;5073240;28;20040;-49
2023/04/23 13:27:25;;;;;;;16.00;3.67;;;;;;;;;;5073501;28;20033;-48
2023/04/23 13:29:52;;;;;;;14.52;3.63;;;;;;;;;;5073424;28;20040;-47
2023/04/23 13:32:19;;;;;;;21.80;3.78;;;;;;;;;;5073447;28;20040;-47
2023/04/23 13:34:46;;;;;;;19.67;3.78;;;;;;;;;;5072992;28;20032;-46
2023/04/23 13:37:12;;;;;;;26.65;4.25;;;;;;;;;;5073265;28;20081;-47
2023/04/23 13:39:40;;;;;;;20.63;3.65;;;;;;;;;;5073193;28;20035;-47
2023/04/23 13:42:06;;;;;;;16.05;3.80;;;;;;;;;;5073109;28;20040;-47
2023/04/23 13:44:33;;;;;;;19.23;3.47;;;;;;;;;;5072052;28;20028;-46
2023/04/23 13:47:00;;;;;;;18.13;3.65;;;;;;;;;;5071821;28;20025;-47
2023/04/23 13:49:28;;;;;;;19.17;3.75;;;;;;;;;;5071683;28;20028;-47
2023/04/23 13:51:59;;;;;;;14.52;3.60;;;;;;;;;;5069760;28;20757;-47
2023/04/23 13:54:28;;;;;;;15.77;3.53;;;;;;;;;;5064631;28;20578;-48
2023/04/23 13:56:55;;;;;;;13.90;3.70;;;;;;;;;;5071760;28;20029;-48
2023/04/23 13:59:24;;;;;;;20.27;3.95;;;;;;;;;;5072116;28;20028;-47
2023/04/23 14:01:51;;;;;;;18.10;4.07;;;;;;;;;;5070840;28;20036;-47
2023/04/23 14:04:19;;;;;;;15.80;3.58;;;;;;;;;;5085843;28;20029;-48
2023/04/23 14:06:46;;;;;;;17.30;4.00;;;;;;;;;;5070501;28;20032;-47
2023/04/23 14:09:13;;;;;;;15.77;3.55;;;;;;;;;;5071240;28;20557;-48
2023/04/23 14:11:40;;;;;;;15.18;3.40;;;;;;;;;;5071652;28;20037;-46
2023/04/23 14:14:07;;;;;;;21.00;3.58;;;;;;;;;;5069106;28;20037;-46
2023/04/23 14:16:34;;;;;;;19.45;4.03;;;;;;;;;;5071101;28;20025;-48
2023/04/23 14:19:01;;;;;;;16.85;3.75;;;;;;;;;;5071508;28;20082;-48
2023/04/23 14:21:28;;;;;;;16.25;3.83;;;;;;;;;;5069047;28;20044;-46
2023/04/23 14:23:58;;;;;;;18.90;3.78;;;;;;;;;;5071069;28;20098;-47
2023/04/23 14:26:31;;;;;;;15.30;4.05;;;;;;;;;;5069605;28;20028;-48
2023/04/23 14:29:02;;;;;;;17.33;3.63;;;;;;;;;;5069730;28;20048;-46
2023/04/23 14:31:29;;;;;;;22.70;4.27;;;;;;;;;;5068443;28;20024;-46
2023/04/23 14:33:58;;;;;;;22.85;4.68;;;;;;;;;;5070335;28;20032;-47
2023/04/23 14:36:25;;;;;;;21.48;4.35;;;;;;;;;;5052318;28;20075;-49
2023/04/23 14:38:52;;;;;;;17.95;3.88;;;;;;;;;;5052929;28;20111;-49
2023/04/23 14:41:19;;;;;;;18.88;3.97;;;;;;;;;;5069103;28;20035;-47